BOLT02 EGYM-EGOV
Flight info
| Callsign | BOLT02 |
|---|---|
| Flight time | N/A |
| Altitude | 10000 |
| Route | 525309N0010352W 523623N0021429W DCT 531722N0035253W DCT 531226N0042531W |
| Aircraft | F35/M-SBDGRY/S |
Departure
| Time | 2026-04-23 14:07 |
|---|---|
| Airport | RAF Marham (EGYM) |
Arrival
| Time | N/A |
|---|---|
| Airport | Anglesey Airport (EGOV) |
| Time | Latitude | Longitude | Altitude | Speed | Heading |
|---|---|---|---|---|---|
| 2026-04-23 13:53 | 52.64902 | 0.56892 | 82 ft | 0 kts | 188° |
| 2026-04-23 14:02 | 52.64858 | 0.56872 | 82 ft | 9 kts | 231° |
| 2026-04-23 14:02 | 52.64825 | 0.56771 | 84 ft | 14 kts | 202° |
| 2026-04-23 14:03 | 52.64703 | 0.56747 | 84 ft | 22 kts | 186° |
| 2026-04-23 14:03 | 52.64523 | 0.56717 | 83 ft | 29 kts | 186° |
| 2026-04-23 14:03 | 52.64319 | 0.56680 | 82 ft | 29 kts | 185° |
| 2026-04-23 14:03 | 52.64125 | 0.56598 | 82 ft | 29 kts | 207° |
| 2026-04-23 14:04 | 52.63949 | 0.56449 | 82 ft | 28 kts | 207° |
| 2026-04-23 14:04 | 52.63887 | 0.56175 | 84 ft | 27 kts | 270° |
| 2026-04-23 14:04 | 52.63902 | 0.55870 | 82 ft | 26 kts | 274° |
| 2026-04-23 14:04 | 52.63910 | 0.55741 | 82 ft | 0 kts | 273° |
| 2026-04-23 14:07 | 52.63910 | 0.55727 | 82 ft | 7 kts | 273° |
| 2026-04-23 14:07 | 52.64438 | 0.55711 | 107 ft | 163 kts | 13° |
| 2026-04-23 14:07 | 52.65984 | 0.56160 | 1101 ft | 232 kts | 12° |
| 2026-04-23 14:08 | 52.67647 | 0.56532 | 2545 ft | 248 kts | 10° |
| 2026-04-23 14:08 | 52.69362 | 0.56915 | 4211 ft | 256 kts | 11° |
| 2026-04-23 14:08 | 52.71119 | 0.57317 | 6129 ft | 255 kts | 10° |
| 2026-04-23 14:08 | 52.72881 | 0.57209 | 8302 ft | 258 kts | 346° |
| 2026-04-23 14:09 | 52.74523 | 0.55650 | 10040 ft | 284 kts | 311° |
| 2026-04-23 14:09 | 52.75005 | 0.52495 | 10385 ft | 289 kts | 261° |
| 2026-04-23 14:09 | 52.74240 | 0.49328 | 10523 ft | 300 kts | 243° |
| 2026-04-23 14:09 | 52.73441 | 0.46161 | 10534 ft | 298 kts | 255° |
| 2026-04-23 14:10 | 52.72993 | 0.42431 | 10587 ft | 432 kts | 264° |
| 2026-04-23 14:10 | 52.72753 | 0.36620 | 10544 ft | 519 kts | 269° |
| 2026-04-23 14:10 | 52.72810 | 0.30651 | 10516 ft | 521 kts | 274° |
| 2026-04-23 14:10 | 52.73139 | 0.24716 | 10500 ft | 520 kts | 278° |
| 2026-04-23 14:11 | 52.73649 | 0.18855 | 10500 ft | 519 kts | 279° |
| 2026-04-23 14:11 | 52.74172 | 0.12946 | 10499 ft | 518 kts | 279° |
| 2026-04-23 14:11 | 52.74686 | 0.07144 | 10505 ft | 518 kts | 279° |
| 2026-04-23 14:11 | 52.75213 | 0.01179 | 10495 ft | 518 kts | 279° |
| 2026-04-23 14:12 | 52.75726 | -0.04628 | 10489 ft | 518 kts | 279° |
| 2026-04-23 14:12 | 52.76247 | -0.10522 | 10485 ft | 518 kts | 278° |
| 2026-04-23 14:12 | 52.76769 | -0.16407 | 10489 ft | 517 kts | 278° |
| 2026-04-23 14:12 | 52.77293 | -0.22285 | 10498 ft | 518 kts | 279° |
| 2026-04-23 14:13 | 52.77819 | -0.28172 | 10491 ft | 518 kts | 278° |
| 2026-04-23 14:13 | 52.78346 | -0.34043 | 10492 ft | 518 kts | 278° |
| 2026-04-23 14:13 | 52.78875 | -0.39923 | 10495 ft | 517 kts | 278° |
| 2026-04-23 14:13 | 52.79406 | -0.45811 | 10491 ft | 518 kts | 278° |
| 2026-04-23 14:14 | 52.79936 | -0.51691 | 10491 ft | 518 kts | 278° |
| 2026-04-23 14:14 | 52.80470 | -0.57600 | 10489 ft | 518 kts | 278° |
| 2026-04-23 14:14 | 52.81000 | -0.63473 | 10495 ft | 517 kts | 278° |
| 2026-04-23 14:14 | 52.81531 | -0.69371 | 10489 ft | 517 kts | 278° |
| 2026-04-23 14:15 | 52.82061 | -0.75239 | 10487 ft | 517 kts | 278° |
| 2026-04-23 14:15 | 52.82594 | -0.81126 | 10485 ft | 517 kts | 278° |
| 2026-04-23 14:15 | 52.83127 | -0.87008 | 10481 ft | 517 kts | 278° |
| 2026-04-23 14:15 | 52.83660 | -0.92890 | 10479 ft | 516 kts | 278° |
| 2026-04-23 14:16 | 52.84192 | -0.98736 | 10478 ft | 517 kts | 278° |
| 2026-04-23 14:16 | 52.84712 | -1.04516 | 10476 ft | 517 kts | 277° |
| 2026-04-23 14:16 | 52.84629 | -1.10460 | 10499 ft | 517 kts | 259° |
| 2026-04-23 14:16 | 52.83691 | -1.16191 | 10498 ft | 516 kts | 252° |
| 2026-04-23 14:17 | 52.82503 | -1.21817 | 10488 ft | 517 kts | 250° |
| 2026-04-23 14:17 | 52.81244 | -1.27359 | 10487 ft | 517 kts | 249° |
| 2026-04-23 14:17 | 52.79946 | -1.32912 | 10484 ft | 516 kts | 249° |
| 2026-04-23 14:17 | 52.78632 | -1.38460 | 10485 ft | 516 kts | 248° |
| 2026-04-23 14:18 | 52.77319 | -1.43973 | 10483 ft | 517 kts | 248° |
| 2026-04-23 14:18 | 52.76007 | -1.49478 | 10483 ft | 516 kts | 248° |
| 2026-04-23 14:18 | 52.74676 | -1.55058 | 10382 ft | 577 kts | 248° |
| 2026-04-23 14:18 | 52.73198 | -1.61252 | 10389 ft | 580 kts | 248° |
| 2026-04-23 14:19 | 52.71726 | -1.67425 | 10404 ft | 580 kts | 248° |
| 2026-04-23 14:19 | 52.70259 | -1.73580 | 10416 ft | 579 kts | 248° |
| 2026-04-23 14:19 | 52.68783 | -1.79778 | 10463 ft | 579 kts | 248° |
| 2026-04-23 14:19 | 52.67313 | -1.85953 | 10460 ft | 579 kts | 248° |
| 2026-04-23 14:20 | 52.65843 | -1.92124 | 10465 ft | 578 kts | 248° |
| 2026-04-23 14:20 | 52.64373 | -1.98300 | 10460 ft | 578 kts | 248° |
| 2026-04-23 14:20 | 52.62910 | -2.04456 | 10466 ft | 578 kts | 248° |
| 2026-04-23 14:20 | 52.61448 | -2.10610 | 10467 ft | 577 kts | 248° |
| 2026-04-23 14:21 | 52.60332 | -2.16941 | 10468 ft | 579 kts | 261° |
| 2026-04-23 14:21 | 52.60304 | -2.23550 | 10475 ft | 580 kts | 277° |
| 2026-04-23 14:21 | 52.61332 | -2.29870 | 10480 ft | 582 kts | 290° |
| 2026-04-23 14:21 | 52.62868 | -2.36038 | 10474 ft | 582 kts | 293° |
| 2026-04-23 14:22 | 52.64539 | -2.42117 | 10452 ft | 582 kts | 294° |
| 2026-04-23 14:22 | 52.66261 | -2.48156 | 10455 ft | 583 kts | 295° |
| 2026-04-23 14:22 | 52.68005 | -2.54177 | 10442 ft | 582 kts | 295° |
| 2026-04-23 14:22 | 52.70203 | -2.59772 | 10472 ft | 585 kts | 310° |
| 2026-04-23 14:23 | 52.73262 | -2.64179 | 10483 ft | 587 kts | 327° |
| 2026-04-23 14:23 | 52.76952 | -2.67039 | 10489 ft | 588 kts | 343° |
| 2026-04-23 14:23 | 52.80977 | -2.68116 | 10491 ft | 588 kts | 359° |
| 2026-04-23 14:23 | 52.85034 | -2.67319 | 10501 ft | 589 kts | 15° |
| 2026-04-23 14:24 | 52.88782 | -2.64725 | 10499 ft | 587 kts | 31° |
| 2026-04-23 14:24 | 52.91973 | -2.60489 | 10503 ft | 585 kts | 48° |
| 2026-04-23 14:24 | 52.94302 | -2.55008 | 10493 ft | 583 kts | 64° |
| 2026-04-23 14:24 | 52.95618 | -2.48670 | 10493 ft | 580 kts | 79° |
| 2026-04-23 14:25 | 52.96219 | -2.42054 | 10475 ft | 580 kts | 85° |
| 2026-04-23 14:25 | 52.96615 | -2.35406 | 10467 ft | 580 kts | 86° |
| 2026-04-23 14:25 | 52.96938 | -2.28734 | 10460 ft | 580 kts | 86° |
| 2026-04-23 14:25 | 52.97228 | -2.22071 | 10465 ft | 579 kts | 87° |
| 2026-04-23 14:26 | 52.97501 | -2.15379 | 10467 ft | 580 kts | 87° |
| 2026-04-23 14:26 | 52.97762 | -2.08713 | 10449 ft | 579 kts | 87° |
| 2026-04-23 14:26 | 52.98010 | -2.02130 | 10463 ft | 580 kts | 87° |
| 2026-04-23 14:26 | 52.97914 | -1.95459 | 10472 ft | 579 kts | 95° |
| 2026-04-23 14:27 | 52.97484 | -1.88818 | 10458 ft | 579 kts | 97° |
| 2026-04-23 14:27 | 52.96947 | -1.82218 | 10475 ft | 579 kts | 98° |
| 2026-04-23 14:27 | 52.96359 | -1.75569 | 10470 ft | 579 kts | 98° |
| 2026-04-23 14:27 | 52.95753 | -1.68964 | 10474 ft | 579 kts | 99° |
| 2026-04-23 14:28 | 52.95134 | -1.62360 | 10461 ft | 579 kts | 99° |
| 2026-04-23 14:28 | 52.94509 | -1.55765 | 10461 ft | 579 kts | 99° |
| 2026-04-23 14:28 | 52.93877 | -1.49160 | 10465 ft | 579 kts | 99° |
| 2026-04-23 14:28 | 52.93244 | -1.42606 | 10467 ft | 579 kts | 99° |
| 2026-04-23 14:29 | 52.92602 | -1.36008 | 10471 ft | 579 kts | 99° |
| 2026-04-23 14:29 | 52.91956 | -1.29401 | 10470 ft | 579 kts | 99° |
| 2026-04-23 14:29 | 52.91308 | -1.22822 | 10467 ft | 578 kts | 99° |
| 2026-04-23 14:29 | 52.90655 | -1.16234 | 10465 ft | 579 kts | 99° |
| 2026-04-23 14:30 | 52.89997 | -1.09647 | 10468 ft | 579 kts | 99° |
| 2026-04-23 14:30 | 52.89338 | -1.03081 | 10461 ft | 579 kts | 99° |
| 2026-04-23 14:30 | 52.88684 | -0.96586 | 10466 ft | 579 kts | 99° |
| 2026-04-23 14:30 | 52.88013 | -0.89970 | 10467 ft | 604 kts | 99° |
| 2026-04-23 14:31 | 52.87312 | -0.83095 | 10464 ft | 607 kts | 99° |
| 2026-04-23 14:31 | 52.86604 | -0.76193 | 10472 ft | 608 kts | 99° |
| 2026-04-23 14:31 | 52.85892 | -0.69291 | 10475 ft | 609 kts | 99° |
| 2026-04-23 14:31 | 52.85174 | -0.62384 | 10474 ft | 610 kts | 99° |
| 2026-04-23 14:32 | 52.84449 | -0.55474 | 10476 ft | 610 kts | 99° |
| 2026-04-23 14:32 | 52.83766 | -0.49002 | 9967 ft | 511 kts | 99° |
| 2026-04-23 14:32 | 52.83155 | -0.43243 | 9214 ft | 507 kts | 99° |
| 2026-04-23 14:32 | 52.82550 | -0.37561 | 8475 ft | 497 kts | 99° |
| 2026-04-23 14:33 | 52.81954 | -0.31980 | 7755 ft | 489 kts | 99° |
| 2026-04-23 14:33 | 52.81364 | -0.26457 | 7067 ft | 481 kts | 99° |
| 2026-04-23 14:33 | 52.80830 | -0.21470 | 6722 ft | 406 kts | 100° |
| 2026-04-23 14:33 | 52.80363 | -0.17107 | 6016 ft | 369 kts | 100° |
| 2026-04-23 14:34 | 52.79938 | -0.13103 | 5313 ft | 343 kts | 100° |
| 2026-04-23 14:34 | 52.79545 | -0.09326 | 4574 ft | 324 kts | 100° |
| 2026-04-23 14:34 | 52.79169 | -0.05745 | 3976 ft | 309 kts | 100° |
| 2026-04-23 14:34 | 52.78805 | -0.02272 | 3691 ft | 304 kts | 100° |
| 2026-04-23 14:35 | 52.78441 | 0.01153 | 3587 ft | 302 kts | 100° |
| 2026-04-23 14:35 | 52.78068 | 0.04522 | 3623 ft | 304 kts | 101° |
| 2026-04-23 14:35 | 52.77679 | 0.07956 | 3896 ft | 305 kts | 101° |
| 2026-04-23 14:35 | 52.77282 | 0.11402 | 4258 ft | 308 kts | 101° |
| 2026-04-23 14:36 | 52.76882 | 0.14867 | 3924 ft | 306 kts | 101° |
| 2026-04-23 14:36 | 52.76484 | 0.18289 | 3379 ft | 302 kts | 101° |
| 2026-04-23 14:36 | 52.76084 | 0.21674 | 3181 ft | 301 kts | 101° |
| 2026-04-23 14:36 | 52.75678 | 0.25063 | 3079 ft | 300 kts | 101° |
| 2026-04-23 14:37 | 52.75271 | 0.28434 | 3043 ft | 301 kts | 101° |
| 2026-04-23 14:37 | 52.74991 | 0.30721 | 3022 ft | 299 kts | 101° |
| 2026-04-23 14:37 | 52.74585 | 0.34049 | 3037 ft | 300 kts | 101° |
| 2026-04-23 14:37 | 52.73947 | 0.37319 | 3071 ft | 301 kts | 114° |
| 2026-04-23 14:38 | 52.72968 | 0.40381 | 3046 ft | 302 kts | 118° |
| 2026-04-23 14:38 | 52.71908 | 0.43372 | 3027 ft | 302 kts | 120° |
| 2026-04-23 14:38 | 52.70809 | 0.46337 | 3045 ft | 300 kts | 120° |
| 2026-04-23 14:38 | 52.69752 | 0.49110 | 2829 ft | 275 kts | 122° |
| 2026-04-23 14:39 | 52.68447 | 0.51273 | 2411 ft | 258 kts | 138° |
| 2026-04-23 14:39 | 52.67274 | 0.53395 | 2384 ft | 250 kts | 114° |
| 2026-04-23 14:39 | 52.66554 | 0.55988 | 2334 ft | 247 kts | 113° |
| 2026-04-23 14:39 | 52.65702 | 0.58436 | 2204 ft | 249 kts | 136° |
| 2026-04-23 14:40 | 52.64282 | 0.59587 | 2293 ft | 207 kts | 155° |
| 2026-04-23 14:40 | 52.62929 | 0.60357 | 2461 ft | 207 kts | 172° |
| 2026-04-23 14:40 | 52.61712 | 0.59553 | 2023 ft | 197 kts | 230° |
| 2026-04-23 14:40 | 52.61299 | 0.57399 | 1624 ft | 190 kts | 267° |
| 2026-04-23 14:41 | 52.61502 | 0.55330 | 1167 ft | 181 kts | 319° |
| 2026-04-23 14:41 | 52.62644 | 0.55156 | 796 ft | 170 kts | 17° |
| 2026-04-23 14:41 | 52.63700 | 0.55516 | 223 ft | 137 kts | 12° |
| 2026-04-23 14:41 | 52.64423 | 0.55705 | 82 ft | 53 kts | 7° |
| 2026-04-23 14:42 | 52.64541 | 0.55616 | 81 ft | 17 kts | 278° |
| 2026-04-23 14:42 | 52.64611 | 0.55555 | 81 ft | 11 kts | 349° |
| 2026-04-23 14:42 | 52.64612 | 0.55479 | 83 ft | 2 kts | 236° |